Time;durP1;ratioP1;P1;durP2;ratioP2;P2;SDS_P1;SDS_P2;PMS_P1;PMS_P2;Temp;Humidity;BMP_temperature;BMP_pressure;BME280_temperature;BME280_humidity;BME280_pressure;Samples;Min_cycle;Max_cycle;Signal;HPM_P1;HPM_P2
2024/01/27 00:00:09;;;;;;;19.75;4.65;;;3.90;99.90;;;;;;5007473;28;20410;-77
2024/01/27 00:02:36;;;;;;;34.38;4.32;;;3.80;99.90;;;;;;5005778;28;20372;-78
2024/01/27 00:05:02;;;;;;;24.08;4.40;;;3.80;99.90;;;;;;5000782;28;20578;-77
2024/01/27 00:07:28;;;;;;;20.55;4.43;;;3.80;99.90;;;;;;4999381;28;20124;-77
2024/01/27 00:09:55;;;;;;;27.63;3.80;;;3.80;99.90;;;;;;4995613;28;20527;-77
2024/01/27 00:12:21;;;;;;;24.00;4.43;;;3.80;99.90;;;;;;5006967;28;20105;-77
2024/01/27 00:14:46;;;;;;;21.02;3.72;;;3.80;99.90;;;;;;5007939;28;20121;-77
2024/01/27 00:17:12;;;;;;;23.95;4.55;;;3.80;99.90;;;;;;5002909;28;20384;-77
2024/01/27 00:19:37;;;;;;;23.52;4.78;;;3.80;99.90;;;;;;5007194;28;20049;-77
2024/01/27 00:22:03;;;;;;;22.63;3.92;;;3.80;99.90;;;;;;5007396;28;20057;-78
2024/01/27 00:24:28;;;;;;;16.15;3.58;;;3.80;99.90;;;;;;5001258;28;20030;-77
2024/01/27 00:26:54;;;;;;;22.70;4.18;;;3.80;99.90;;;;;;5004141;28;20050;-77
2024/01/27 00:29:20;;;;;;;20.13;4.35;;;3.80;99.90;;;;;;5001445;28;20046;-77
2024/01/27 00:31:45;;;;;;;15.52;3.80;;;3.70;99.90;;;;;;4999379;28;20053;-77
2024/01/27 00:34:11;;;;;;;29.70;4.80;;;3.70;99.90;;;;;;5005656;28;20052;-77
2024/01/27 00:36:37;;;;;;;27.20;4.70;;;3.70;99.90;;;;;;5007737;28;20056;-77
2024/01/27 00:39:03;;;;;;;18.98;4.32;;;3.70;99.90;;;;;;5004697;28;20045;-78
2024/01/27 00:41:29;;;;;;;23.80;4.13;;;3.70;99.90;;;;;;5011379;28;20196;-77
2024/01/27 00:43:54;;;;;;;20.17;4.65;;;3.60;99.90;;;;;;5009826;28;20556;-77
2024/01/27 00:46:20;;;;;;;25.85;4.40;;;3.70;99.90;;;;;;5002056;28;20042;-77
2024/01/27 00:48:46;;;;;;;22.65;4.25;;;3.60;99.90;;;;;;5011618;28;20060;-77
2024/01/27 00:51:12;;;;;;;16.77;3.78;;;3.70;99.90;;;;;;5004068;28;20504;-77
2024/01/27 00:53:38;;;;;;;16.13;4.10;;;3.70;99.90;;;;;;5005661;28;20053;-77
2024/01/27 00:56:04;;;;;;;16.73;4.28;;;3.60;99.90;;;;;;5011006;28;20050;-77
2024/01/27 00:58:30;;;;;;;15.70;4.40;;;3.60;99.90;;;;;;5004268;28;20053;-77
2024/01/27 01:00:55;;;;;;;21.83;3.75;;;3.60;99.90;;;;;;5011315;28;20041;-77
2024/01/27 01:03:21;;;;;;;23.33;3.75;;;3.60;99.90;;;;;;5006962;28;20037;-77
2024/01/27 01:05:46;;;;;;;24.00;4.35;;;3.50;99.90;;;;;;5018493;28;20046;-78
2024/01/27 01:08:12;;;;;;;22.10;4.40;;;3.60;99.90;;;;;;5010359;28;20084;-77
2024/01/27 01:10:38;;;;;;;20.77;4.13;;;3.60;99.90;;;;;;5010410;28;20041;-77
2024/01/27 01:13:04;;;;;;;22.38;4.00;;;3.50;99.90;;;;;;5011147;28;20161;-77
2024/01/27 01:15:29;;;;;;;19.52;3.85;;;3.50;99.90;;;;;;5003237;28;20046;-77
2024/01/27 01:17:55;;;;;;;21.80;4.40;;;3.50;99.90;;;;;;5002489;28;20116;-77
2024/01/27 01:20:20;;;;;;;19.65;4.13;;;3.50;99.90;;;;;;5014999;28;20057;-77
2024/01/27 01:22:46;;;;;;;20.83;4.35;;;3.40;99.90;;;;;;5010605;28;20037;-77
2024/01/27 01:25:11;;;;;;;17.08;3.85;;;3.40;99.90;;;;;;5007173;28;20113;-77
2024/01/27 01:27:37;;;;;;;21.73;4.28;;;3.40;99.90;;;;;;5006028;28;20070;-77
2024/01/27 01:30:03;;;;;;;20.00;3.78;;;3.40;99.90;;;;;;5008991;28;20044;-77
2024/01/27 01:32:28;;;;;;;21.45;4.90;;;3.40;99.90;;;;;;5004600;28;20093;-77
2024/01/27 01:34:54;;;;;;;20.63;4.00;;;3.40;99.90;;;;;;5001248;28;20773;-77
2024/01/27 01:37:19;;;;;;;19.70;4.05;;;3.40;99.90;;;;;;5004730;28;20046;-77
2024/01/27 01:39:45;;;;;;;21.55;3.92;;;3.40;99.90;;;;;;4998749;28;20046;-78
2024/01/27 01:42:10;;;;;;;18.38;4.68;;;3.40;99.90;;;;;;5004456;28;20081;-77
2024/01/27 01:44:36;;;;;;;21.23;4.10;;;3.40;99.90;;;;;;5007883;28;20094;-77
2024/01/27 01:47:03;;;;;;;20.10;4.20;;;3.50;99.90;;;;;;5009811;28;20037;-77
2024/01/27 01:49:28;;;;;;;26.55;4.55;;;3.40;99.90;;;;;;5009833;28;20451;-78
2024/01/27 01:51:54;;;;;;;19.83;4.10;;;3.40;99.90;;;;;;4998985;28;20104;-77
2024/01/27 01:54:22;;;;;;;18.95;4.38;;;3.40;99.90;;;;;;5011367;28;20034;-77
2024/01/27 01:56:48;;;;;;;15.05;3.50;;;3.40;99.90;;;;;;5009505;28;20042;-78
2024/01/27 01:59:13;;;;;;;25.48;4.38;;;3.40;99.90;;;;;;5009432;28;20054;-77
2024/01/27 02:01:39;;;;;;;23.45;4.90;;;3.40;99.90;;;;;;5007232;28;20529;-77
2024/01/27 02:04:04;;;;;;;14.90;3.60;;;3.40;99.90;;;;;;4994126;28;20054;-78
2024/01/27 02:06:30;;;;;;;18.13;3.75;;;3.40;99.90;;;;;;5005596;28;20102;-78
2024/01/27 02:08:56;;;;;;;21.85;4.95;;;3.40;99.90;;;;;;4997026;28;20047;-78
2024/01/27 02:11:21;;;;;;;21.27;4.53;;;3.40;99.90;;;;;;5009578;28;20100;-77
2024/01/27 02:13:47;;;;;;;25.23;3.97;;;3.30;99.90;;;;;;5008876;28;20049;-78
2024/01/27 02:16:12;;;;;;;17.80;4.00;;;3.30;99.90;;;;;;5005538;28;20057;-78
2024/01/27 02:18:38;;;;;;;21.95;4.97;;;3.30;99.90;;;;;;5000632;28;20052;-78
2024/01/27 02:21:04;;;;;;;21.90;4.70;;;3.40;99.90;;;;;;4982599;28;20088;-78
2024/01/27 02:23:29;;;;;;;20.63;4.00;;;3.30;99.90;;;;;;5005740;28;20034;-77
2024/01/27 02:25:55;;;;;;;13.20;3.55;;;3.30;99.90;;;;;;5009493;28;20040;-78
2024/01/27 02:28:23;;;;;;;17.90;4.15;;;3.30;99.90;;;;;;5007770;28;20553;-78
2024/01/27 02:30:49;;;;;;;19.42;3.92;;;3.20;99.90;;;;;;5003817;28;20085;-78
2024/01/27 02:33:14;;;;;;;18.48;3.97;;;3.30;99.90;;;;;;4999014;28;20527;-77
2024/01/27 02:35:40;;;;;;;25.92;3.97;;;3.30;99.90;;;;;;5006241;28;20113;-78
2024/01/27 02:38:05;;;;;;;16.42;4.05;;;3.40;99.90;;;;;;5009886;28;20085;-78
2024/01/27 02:40:31;;;;;;;15.27;4.00;;;3.30;99.90;;;;;;5004068;28;20060;-78
2024/01/27 02:42:56;;;;;;;24.35;4.03;;;3.30;99.90;;;;;;5005434;28;20060;-78
2024/01/27 02:45:22;;;;;;;18.25;3.70;;;3.20;99.90;;;;;;5008905;28;20053;-78
2024/01/27 02:47:47;;;;;;;20.95;4.30;;;3.20;99.90;;;;;;5007921;28;20057;-78
2024/01/27 02:50:13;;;;;;;21.52;4.03;;;3.30;99.90;;;;;;5004710;28;20064;-78
2024/01/27 02:52:39;;;;;;;19.35;3.90;;;3.20;99.90;;;;;;5009613;28;20069;-78
2024/01/27 02:55:06;;;;;;;24.08;4.85;;;3.30;99.90;;;;;;5012880;28;20558;-78
2024/01/27 02:57:31;;;;;;;18.65;3.92;;;3.30;99.90;;;;;;5010601;28;20396;-77
2024/01/27 02:59:57;;;;;;;16.58;4.10;;;3.20;99.90;;;;;;5009733;28;20057;-77
2024/01/27 03:02:22;;;;;;;21.80;4.32;;;3.20;99.90;;;;;;5001037;28;20501;-77
2024/01/27 03:04:48;;;;;;;20.30;3.40;;;3.20;99.90;;;;;;5008452;28;20038;-77
2024/01/27 03:07:13;;;;;;;16.83;4.30;;;3.20;99.90;;;;;;5004380;28;20046;-77
2024/01/27 03:09:39;;;;;;;17.67;4.40;;;3.20;99.90;;;;;;5004728;28;20419;-78
2024/01/27 03:12:05;;;;;;;18.83;3.55;;;3.20;99.90;;;;;;5007916;28;20042;-77
2024/01/27 03:14:30;;;;;;;19.52;3.63;;;3.20;99.90;;;;;;5008761;28;20570;-77
2024/01/27 03:16:56;;;;;;;15.00;3.88;;;3.20;99.90;;;;;;5001191;28;20054;-77
2024/01/27 03:19:22;;;;;;;23.17;4.03;;;3.20;99.90;;;;;;5001103;28;20137;-78
2024/01/27 03:21:47;;;;;;;21.45;4.22;;;3.20;99.90;;;;;;5008597;28;20050;-78
2024/01/27 03:24:13;;;;;;;16.20;3.38;;;3.20;99.90;;;;;;5009659;28;20121;-78
2024/01/27 03:26:38;;;;;;;16.10;4.25;;;3.20;99.90;;;;;;5003802;28;20549;-78
2024/01/27 03:29:04;;;;;;;22.30;3.90;;;3.20;99.90;;;;;;5008341;28;20068;-78
2024/01/27 03:31:31;;;;;;;22.40;4.43;;;3.20;99.90;;;;;;5003829;28;20038;-77
2024/01/27 03:33:56;;;;;;;17.85;3.65;;;3.20;99.90;;;;;;4997858;28;20042;-78
2024/01/27 03:36:22;;;;;;;20.15;4.07;;;3.20;99.90;;;;;;5002830;28;20053;-78
2024/01/27 03:38:47;;;;;;;16.90;3.45;;;3.10;99.90;;;;;;5007425;28;20050;-78
2024/01/27 03:41:13;;;;;;;22.00;3.72;;;3.10;99.90;;;;;;5001916;28;20586;-78
2024/01/27 03:43:39;;;;;;;21.58;4.22;;;3.10;99.90;;;;;;5006574;28;20040;-78
2024/01/27 03:46:04;;;;;;;16.67;3.90;;;3.10;99.90;;;;;;5006765;28;20046;-77
2024/01/27 03:48:30;;;;;;;20.48;4.55;;;3.10;99.90;;;;;;5007514;28;20418;-78
2024/01/27 03:50:56;;;;;;;25.00;3.90;;;3.10;99.90;;;;;;5007474;28;20598;-78
2024/01/27 03:53:21;;;;;;;23.95;4.40;;;3.10;99.90;;;;;;5007838;28;20034;-78
2024/01/27 03:55:47;;;;;;;20.33;3.95;;;3.10;99.90;;;;;;5004303;28;20096;-78
2024/01/27 03:58:12;;;;;;;14.38;3.78;;;3.10;99.90;;;;;;5005751;28;20549;-78
2024/01/27 04:00:38;;;;;;;20.10;3.85;;;3.10;99.90;;;;;;5005178;28;20060;-78
2024/01/27 04:03:03;;;;;;;25.55;4.07;;;3.10;99.90;;;;;;5008005;28;20042;-78
2024/01/27 04:05:30;;;;;;;19.92;3.88;;;3.10;99.90;;;;;;5006887;28;20046;-77
2024/01/27 04:07:55;;;;;;;20.30;3.92;;;3.10;99.90;;;;;;5006100;28;20053;-78
2024/01/27 04:10:22;;;;;;;24.15;4.40;;;3.10;99.90;;;;;;5007514;28;20054;-77
2024/01/27 04:12:47;;;;;;;25.77;4.38;;;3.00;99.90;;;;;;5008324;28;20038;-78
2024/01/27 04:15:13;;;;;;;16.77;3.47;;;3.10;99.90;;;;;;5011937;28;20116;-78
2024/01/27 04:17:39;;;;;;;24.77;4.18;;;3.00;99.90;;;;;;5004133;28;20407;-78
2024/01/27 04:20:06;;;;;;;17.42;3.90;;;3.00;99.90;;;;;;5012163;28;20101;-78
2024/01/27 04:22:35;;;;;;;19.92;4.18;;;3.00;99.90;;;;;;5011545;28;20403;-78
2024/01/27 04:25:01;;;;;;;19.98;4.05;;;2.90;99.90;;;;;;5011384;28;20053;-78
2024/01/27 04:27:28;;;;;;;18.58;3.65;;;2.90;99.90;;;;;;5012712;28;20042;-78
2024/01/27 04:29:53;;;;;;;19.85;3.95;;;2.90;99.90;;;;;;5010145;28;20042;-78
2024/01/27 04:32:21;;;;;;;22.70;4.15;;;2.90;99.90;;;;;;5010242;28;20041;-78
2024/01/27 04:34:46;;;;;;;25.92;4.63;;;2.90;99.90;;;;;;5011004;28;20061;-78
2024/01/27 04:37:12;;;;;;;14.65;3.72;;;2.90;99.90;;;;;;5011176;28;20443;-78
2024/01/27 04:39:38;;;;;;;22.77;4.88;;;2.90;99.90;;;;;;5007223;28;20043;-78
2024/01/27 04:42:06;;;;;;;23.65;4.65;;;3.00;99.90;;;;;;5000719;28;20045;-78
2024/01/27 04:44:32;;;;;;;20.95;4.35;;;3.00;99.90;;;;;;5000581;28;20039;-78
2024/01/27 04:46:57;;;;;;;19.08;4.22;;;3.00;99.90;;;;;;5011581;28;20044;-78
2024/01/27 04:49:23;;;;;;;21.35;5.47;;;3.00;99.90;;;;;;5011015;28;20061;-78
2024/01/27 04:51:48;;;;;;;21.20;4.25;;;3.00;99.90;;;;;;5012013;28;20059;-78
2024/01/27 04:54:14;;;;;;;19.50;4.72;;;3.00;99.90;;;;;;5008825;28;20081;-78
2024/01/27 04:56:40;;;;;;;21.00;4.45;;;3.00;99.90;;;;;;5009614;28;20484;-78
2024/01/27 04:59:05;;;;;;;20.42;4.70;;;3.00;99.90;;;;;;5004581;28;20292;-78
2024/01/27 05:01:32;;;;;;;23.33;4.68;;;3.00;99.90;;;;;;5010785;28;20795;-78
2024/01/27 05:03:57;;;;;;;19.65;4.72;;;2.90;99.90;;;;;;5005076;28;20133;-78
2024/01/27 05:06:23;;;;;;;22.25;5.13;;;3.00;99.90;;;;;;5007601;28;20120;-78
2024/01/27 05:08:48;;;;;;;20.52;4.90;;;3.00;99.90;;;;;;5009632;28;20129;-78
2024/01/27 05:11:16;;;;;;;16.13;4.50;;;2.90;99.90;;;;;;5007474;28;20056;-78
2024/01/27 05:13:41;;;;;;;23.90;5.47;;;3.00;99.90;;;;;;5008031;28;20403;-78
2024/01/27 05:16:07;;;;;;;19.73;4.75;;;3.00;99.90;;;;;;5009527;28;20054;-78
2024/01/27 05:18:32;;;;;;;20.38;5.05;;;3.00;99.90;;;;;;5006754;28;20501;-78
2024/01/27 05:20:58;;;;;;;20.42;4.82;;;3.00;99.90;;;;;;5011838;28;20156;-78
2024/01/27 05:23:24;;;;;;;24.50;5.30;;;3.00;99.90;;;;;;5010608;28;20096;-78
2024/01/27 05:25:49;;;;;;;21.67;5.28;;;3.00;99.90;;;;;;4993291;28;20057;-78
2024/01/27 05:28:15;;;;;;;23.80;5.35;;;3.00;99.90;;;;;;5003970;28;20049;-78
2024/01/27 05:30:40;;;;;;;17.67;5.45;;;3.00;99.90;;;;;;5011738;28;20123;-78
2024/01/27 05:33:06;;;;;;;21.88;5.65;;;3.00;99.90;;;;;;5009970;28;20100;-78
2024/01/27 05:35:31;;;;;;;21.67;5.70;;;3.00;99.90;;;;;;5009803;28;20042;-78
2024/01/27 05:37:57;;;;;;;21.48;4.82;;;3.00;99.90;;;;;;5005156;28;20152;-78
2024/01/27 05:40:22;;;;;;;26.25;6.13;;;3.00;99.90;;;;;;5002939;28;20089;-78
2024/01/27 05:42:49;;;;;;;26.13;5.55;;;3.10;99.90;;;;;;5002431;28;20042;-78
2024/01/27 05:45:15;;;;;;;25.05;5.25;;;3.00;99.90;;;;;;5005708;28;20052;-78
2024/01/27 05:47:41;;;;;;;25.50;6.03;;;3.00;99.90;;;;;;5009426;28;20034;-78
2024/01/27 05:50:08;;;;;;;25.33;6.30;;;3.10;99.90;;;;;;5009621;28;20175;-78
2024/01/27 05:52:34;;;;;;;28.88;6.40;;;3.00;99.90;;;;;;5004874;28;20054;-78
2024/01/27 05:55:00;;;;;;;21.70;5.65;;;3.00;99.90;;;;;;5003966;28;20407;-78
2024/01/27 05:57:26;;;;;;;19.40;5.22;;;3.00;99.90;;;;;;5006401;28;20049;-78
2024/01/27 05:59:52;;;;;;;27.40;5.90;;;3.00;99.90;;;;;;5010023;28;20034;-78
2024/01/27 06:02:17;;;;;;;21.17;5.97;;;3.00;99.90;;;;;;5007764;28;20044;-77
2024/01/27 06:04:43;;;;;;;17.77;5.68;;;2.90;99.90;;;;;;5003240;28;20095;-78
2024/01/27 06:07:09;;;;;;;26.85;5.93;;;3.00;99.90;;;;;;5006377;28;20034;-78
2024/01/27 06:09:36;;;;;;;22.02;6.05;;;3.00;99.90;;;;;;5009954;28;20046;-78
2024/01/27 06:12:02;;;;;;;19.33;5.40;;;2.90;99.90;;;;;;5010189;28;20061;-78
2024/01/27 06:14:28;;;;;;;22.85;5.63;;;2.90;99.90;;;;;;5005647;28;20046;-78
2024/01/27 06:16:53;;;;;;;19.27;5.57;;;2.90;99.90;;;;;;5009038;28;20052;-78
2024/01/27 06:19:19;;;;;;;26.27;6.60;;;2.90;99.90;;;;;;5004827;28;20050;-78
2024/01/27 06:21:44;;;;;;;23.02;5.95;;;2.90;99.90;;;;;;5003347;28;20030;-78
2024/01/27 06:24:10;;;;;;;25.38;6.95;;;2.90;99.90;;;;;;5005988;28;20050;-78
2024/01/27 06:26:36;;;;;;;25.73;6.70;;;2.90;99.90;;;;;;4996078;28;20080;-78
2024/01/27 06:29:02;;;;;;;21.08;5.80;;;2.90;99.90;;;;;;5004788;28;20046;-78
2024/01/27 06:31:28;;;;;;;26.40;6.43;;;2.90;99.90;;;;;;5007045;28;20073;-78
2024/01/27 06:33:53;;;;;;;27.65;6.25;;;2.90;99.90;;;;;;5007124;28;20053;-78
2024/01/27 06:36:19;;;;;;;30.88;6.03;;;2.90;99.90;;;;;;5008983;28;20060;-78
2024/01/27 06:38:44;;;;;;;16.67;5.90;;;2.90;99.90;;;;;;5000176;28;20041;-78
2024/01/27 06:41:10;;;;;;;22.98;5.45;;;2.90;99.90;;;;;;5004599;28;20046;-78
2024/01/27 06:43:36;;;;;;;25.73;6.03;;;2.90;99.90;;;;;;5007162;28;20103;-78
2024/01/27 06:46:01;;;;;;;18.02;6.50;;;2.90;99.90;;;;;;5009832;28;20612;-78
2024/01/27 06:48:27;;;;;;;21.15;6.72;;;2.90;99.90;;;;;;5005056;28;20585;-78
2024/01/27 06:50:52;;;;;;;26.25;6.55;;;2.80;99.90;;;;;;5008210;28;20505;-78
2024/01/27 06:53:19;;;;;;;22.88;6.35;;;4.00;99.90;;;;;;5000308;28;20651;-78
2024/01/27 06:55:45;;;;;;;24.98;6.47;;;2.90;99.90;;;;;;5008084;28;20081;-78
2024/01/27 06:58:10;;;;;;;24.90;6.28;;;2.80;99.90;;;;;;4999217;28;20038;-78
2024/01/27 07:00:36;;;;;;;24.13;6.65;;;2.80;99.90;;;;;;4999301;28;20259;-78
2024/01/27 07:03:02;;;;;;;20.77;6.90;;;2.80;99.90;;;;;;5007652;28;20042;-78
2024/01/27 07:05:28;;;;;;;21.42;6.22;;;2.80;99.90;;;;;;5009450;28;20049;-78
2024/01/27 07:07:53;;;;;;;26.98;7.05;;;2.80;99.90;;;;;;5010821;28;20806;-78
2024/01/27 07:10:19;;;;;;;31.73;7.05;;;2.80;99.90;;;;;;5009195;28;20542;-78
2024/01/27 07:12:45;;;;;;;22.92;6.03;;;2.70;99.90;;;;;;5010133;28;20045;-78
2024/01/27 07:15:10;;;;;;;24.38;6.70;;;2.70;99.90;;;;;;5008148;28;20052;-78
2024/01/27 07:17:36;;;;;;;22.35;6.10;;;3.20;99.90;;;;;;5009780;28;20034;-78
2024/01/27 07:20:01;;;;;;;27.83;6.90;;;2.70;99.90;;;;;;5008448;28;20045;-78
2024/01/27 07:22:27;;;;;;;24.92;6.85;;;2.70;99.90;;;;;;5006591;28;20057;-78
2024/01/27 07:24:53;;;;;;;22.80;7.03;;;2.70;99.90;;;;;;5008547;28;20045;-78
2024/01/27 07:27:18;;;;;;;25.40;6.70;;;2.70;99.90;;;;;;5009067;28;20398;-78
2024/01/27 07:29:44;;;;;;;28.67;7.15;;;2.70;99.90;;;;;;5007927;28;20038;-78
2024/01/27 07:32:13;;;;;;;24.95;6.85;;;2.70;99.90;;;;;;5003342;28;20046;-78
2024/01/27 07:34:41;;;;;;;20.60;7.70;;;2.60;99.90;;;;;;5000709;28;20050;-78
2024/01/27 07:37:07;;;;;;;27.45;8.70;;;2.60;99.90;;;;;;4998455;28;20133;-78
2024/01/27 07:39:33;;;;;;;24.23;9.07;;;2.60;99.90;;;;;;5000533;28;20089;-78
2024/01/27 07:41:59;;;;;;;24.73;10.68;;;2.60;99.90;;;;;;5008442;28;20069;-78
2024/01/27 07:44:24;;;;;;;39.83;14.48;;;2.50;99.90;;;;;;5008953;28;20046;-78
2024/01/27 07:46:50;;;;;;;38.65;14.88;;;2.50;99.90;;;;;;5003918;28;20125;-78
2024/01/27 07:49:16;;;;;;;43.83;16.27;;;2.40;99.90;;;;;;5005531;28;20988;-78
2024/01/27 07:51:41;;;;;;;57.88;18.40;;;2.40;99.90;;;;;;5015147;28;20050;-78
2024/01/27 07:54:07;;;;;;;58.38;20.50;;;2.40;99.90;;;;;;5010139;28;20088;-78
2024/01/27 07:56:33;;;;;;;50.30;20.33;;;2.40;99.90;;;;;;5009651;28;20507;-78
2024/01/27 07:58:58;;;;;;;55.58;20.95;;;2.40;99.90;;;;;;5006064;28;20100;-78
2024/01/27 08:01:24;;;;;;;54.42;20.20;;;2.40;99.90;;;;;;5011449;28;20037;-78
2024/01/27 08:03:49;;;;;;;49.25;20.00;;;2.40;99.90;;;;;;5007697;28;20034;-78
2024/01/27 08:06:21;;;;;;;49.63;18.63;;;2.40;99.90;;;;;;5005286;28;20438;-78
2024/01/27 08:08:48;;;;;;;51.08;18.98;;;2.40;99.90;;;;;;4993657;28;20037;-78
2024/01/27 08:11:17;;;;;;;52.60;19.52;;;2.50;99.90;;;;;;4987389;28;20483;-78
2024/01/27 08:13:43;;;;;;;38.95;17.38;;;2.50;99.90;;;;;;5001213;28;20537;-78
2024/01/27 08:16:12;;;;;;;44.45;17.30;;;2.50;99.90;;;;;;5007191;28;20152;-78
2024/01/27 08:18:43;;;;;;;41.47;15.70;;;2.50;99.90;;;;;;5008382;28;20069;-78
2024/01/27 08:21:09;;;;;;;40.72;15.18;;;2.50;99.90;;;;;;4999607;28;20056;-78
2024/01/27 08:23:34;;;;;;;40.55;14.48;;;2.50;99.90;;;;;;5002880;28;20034;-78
2024/01/27 08:26:00;;;;;;;37.08;14.57;;;2.60;99.90;;;;;;5007872;28;20048;-78
2024/01/27 08:28:26;;;;;;;39.20;14.30;;;2.60;99.90;;;;;;5005594;28;20073;-78
2024/01/27 08:30:52;;;;;;;40.53;13.43;;;2.60;99.90;;;;;;5009007;28;20654;-78
2024/01/27 08:33:17;;;;;;;32.53;12.90;;;2.60;99.90;;;;;;5003126;28;20057;-78
2024/01/27 08:35:43;;;;;;;35.08;12.77;;;2.60;99.90;;;;;;5003929;28;20456;-78
2024/01/27 08:38:09;;;;;;;34.92;12.50;;;2.70;99.90;;;;;;5007709;28;20068;-78
2024/01/27 08:40:35;;;;;;;35.03;12.38;;;2.70;99.90;;;;;;5008276;28;20077;-78
2024/01/27 08:43:01;;;;;;;29.75;11.65;;;2.70;99.90;;;;;;5009316;28;20034;-78
2024/01/27 08:45:30;;;;;;;22.35;10.55;;;2.70;99.90;;;;;;5007226;28;20514;-78
2024/01/27 08:47:55;;;;;;;32.13;11.85;;;2.70;99.90;;;;;;5010997;28;20132;-78
2024/01/27 08:50:21;;;;;;;29.77;11.15;;;2.80;99.90;;;;;;5002128;28;20543;-78
2024/01/27 08:52:47;;;;;;;32.22;11.15;;;2.80;99.90;;;;;;5001222;28;20442;-78
2024/01/27 08:55:12;;;;;;;29.80;11.68;;;2.80;99.90;;;;;;5008871;28;20128;-78
2024/01/27 08:57:38;;;;;;;25.23;10.63;;;2.80;99.90;;;;;;4999531;28;20077;-78
2024/01/27 09:00:04;;;;;;;31.85;10.65;;;2.90;99.90;;;;;;5007770;28;20100;-78
2024/01/27 09:02:30;;;;;;;28.98;10.93;;;2.90;99.90;;;;;;5004105;28;20128;-78
2024/01/27 09:04:56;;;;;;;33.65;11.35;;;2.90;99.90;;;;;;5001997;28;20164;-78
2024/01/27 09:07:21;;;;;;;25.55;10.70;;;2.90;99.90;;;;;;5007436;28;20038;-78
2024/01/27 09:09:47;;;;;;;30.25;11.68;;;3.00;99.90;;;;;;5007570;28;20074;-78
2024/01/27 09:12:13;;;;;;;26.10;11.05;;;3.00;99.90;;;;;;5007301;28;20045;-78
2024/01/27 09:14:38;;;;;;;29.70;11.68;;;3.00;99.90;;;;;;5010794;28;20084;-78
2024/01/27 09:17:04;;;;;;;36.60;12.38;;;3.10;99.90;;;;;;5010971;28;20140;-78
2024/01/27 09:19:29;;;;;;;31.50;12.48;;;3.10;99.90;;;;;;5010254;28;20069;-78
2024/01/27 09:21:55;;;;;;;26.52;11.50;;;3.20;99.90;;;;;;5009944;28;20092;-78
2024/01/27 09:24:21;;;;;;;25.77;11.52;;;3.20;99.90;;;;;;5010947;28;20099;-78
2024/01/27 09:26:46;;;;;;;31.25;12.18;;;3.20;99.90;;;;;;4993511;28;20033;-78
2024/01/27 09:29:12;;;;;;;30.60;12.25;;;3.30;99.90;;;;;;5006474;28;20523;-78
2024/01/27 09:31:37;;;;;;;29.33;12.77;;;3.30;99.90;;;;;;5006003;28;20049;-78
2024/01/27 09:34:03;;;;;;;28.50;11.90;;;3.40;99.90;;;;;;5007520;28;20084;-78
2024/01/27 09:36:29;;;;;;;25.25;11.85;;;3.50;99.90;;;;;;5008538;28;20041;-78
2024/01/27 09:38:54;;;;;;;29.40;10.70;;;3.50;99.90;;;;;;5004089;28;20046;-78
2024/01/27 09:41:20;;;;;;;32.53;11.63;;;3.60;99.90;;;;;;5009951;28;20042;-78
2024/01/27 09:43:50;;;;;;;30.92;11.55;;;3.70;99.90;;;;;;4990345;28;20073;-78
2024/01/27 09:46:16;;;;;;;28.55;11.52;;;3.80;99.90;;;;;;5009982;28;20610;-78
2024/01/27 09:48:42;;;;;;;28.42;11.45;;;3.80;99.90;;;;;;5009629;28;20037;-78
2024/01/27 09:51:09;;;;;;;26.42;11.05;;;3.90;99.90;;;;;;4999993;28;20392;-78
2024/01/27 09:53:35;;;;;;;30.88;10.65;;;4.00;99.90;;;;;;5009695;28;20059;-78
2024/01/27 09:56:04;;;;;;;28.63;10.90;;;4.00;99.90;;;;;;5010872;28;20078;-78
2024/01/27 09:58:30;;;;;;;26.75;11.35;;;4.00;99.90;;;;;;5009667;28;20054;-79
2024/01/27 10:00:58;;;;;;;30.67;11.27;;;4.10;99.90;;;;;;5012075;28;20045;-78
2024/01/27 10:03:28;;;;;;;26.85;10.73;;;4.20;99.90;;;;;;5009967;28;20141;-78
2024/01/27 10:05:56;;;;;;;27.42;9.35;;;4.30;99.90;;;;;;5010574;28;20042;-78
2024/01/27 10:08:22;;;;;;;25.25;10.00;;;4.30;99.90;;;;;;5009539;28;20041;-78
2024/01/27 10:10:56;;;;;;;32.10;10.15;;;4.40;99.90;;;;;;5007706;28;20045;-78
2024/01/27 10:13:28;;;;;;;23.35;9.55;;;4.50;99.90;;;;;;5000298;28;20411;-78
2024/01/27 10:16:02;;;;;;;28.50;10.45;;;4.60;99.90;;;;;;5009020;28;20052;-78
2024/01/27 10:18:28;;;;;;;25.00;9.95;;;4.70;99.90;;;;;;5001042;28;20121;-78
2024/01/27 10:20:54;;;;;;;28.02;10.30;;;4.70;99.90;;;;;;4993517;28;20069;-79
2024/01/27 10:23:19;;;;;;;24.65;9.45;;;4.80;99.90;;;;;;5005974;28;20487;-78
2024/01/27 10:25:45;;;;;;;28.25;9.38;;;4.90;99.90;;;;;;5002023;28;20045;-78
2024/01/27 10:28:10;;;;;;;28.40;9.27;;;4.90;99.90;;;;;;5001612;28;20527;-78
2024/01/27 10:30:37;;;;;;;27.50;8.88;;;5.00;99.90;;;;;;5005687;28;20050;-78
2024/01/27 10:33:03;;;;;;;22.05;8.68;;;5.10;99.90;;;;;;5005048;28;20054;-78
2024/01/27 10:35:29;;;;;;;24.88;9.18;;;5.20;99.90;;;;;;5002064;28;20038;-78
2024/01/27 10:37:55;;;;;;;32.03;10.00;;;5.20;99.90;;;;;;5014460;28;20127;-78
2024/01/27 10:40:24;;;;;;;25.35;9.07;;;5.30;99.90;;;;;;5002416;28;20057;-78
2024/01/27 10:43:08;;;;;;;35.03;9.05;;;5.30;99.90;;;;;;5006302;28;20120;-78
2024/01/27 10:45:40;;;;;;;28.60;9.48;;;5.40;99.90;;;;;;4999283;28;20440;-78
2024/01/27 10:48:12;;;;;;;24.20;8.68;;;5.50;99.90;;;;;;5009194;28;20053;-78
2024/01/27 10:50:39;;;;;;;23.23;8.82;;;5.50;99.90;;;;;;5008542;28;20045;-78
2024/01/27 10:53:09;;;;;;;20.80;7.43;;;5.50;99.90;;;;;;5010440;28;20095;-78
2024/01/27 10:55:36;;;;;;;23.38;8.20;;;5.60;99.90;;;;;;5009296;28;20052;-78
2024/01/27 10:58:03;;;;;;;26.35;8.20;;;5.70;99.90;;;;;;5004212;28;20034;-78
2024/01/27 11:00:30;;;;;;;20.30;7.88;;;5.70;99.90;;;;;;5012099;28;20107;-78
2024/01/27 11:03:01;;;;;;;22.05;8.73;;;5.80;99.90;;;;;;5009970;28;20496;-78
2024/01/27 11:05:31;;;;;;;33.47;8.38;;;5.80;99.90;;;;;;5001102;28;20050;-78
2024/01/27 11:07:59;;;;;;;22.85;7.70;;;5.90;99.90;;;;;;5004733;28;20101;-78
2024/01/27 11:10:26;;;;;;;21.67;8.13;;;6.00;99.90;;;;;;5006005;28;20477;-78
2024/01/27 11:12:54;;;;;;;22.75;7.93;;;6.00;99.90;;;;;;5004357;28;20483;-78
2024/01/27 11:15:21;;;;;;;18.70;7.18;;;6.10;99.90;;;;;;5009636;28;20050;-78
2024/01/27 11:17:46;;;;;;;28.17;7.57;;;6.10;99.90;;;;;;5001276;28;20046;-78
2024/01/27 11:20:13;;;;;;;23.63;8.23;;;6.20;99.90;;;;;;4998220;28;20051;-78
2024/01/27 11:22:40;;;;;;;21.77;8.77;;;6.20;99.90;;;;;;5005805;28;20045;-78
2024/01/27 11:25:11;;;;;;;24.65;7.95;;;6.30;99.90;;;;;;5009173;28;20564;-78
2024/01/27 11:27:37;;;;;;;21.08;7.35;;;6.30;99.90;;;;;;5009511;28;20050;-78
2024/01/27 11:30:04;;;;;;;23.65;7.78;;;6.40;99.90;;;;;;5002291;28;20110;-78
2024/01/27 11:32:31;;;;;;;25.33;6.95;;;6.40;99.90;;;;;;5004566;28;20081;-78
2024/01/27 11:34:57;;;;;;;25.95;8.13;;;6.50;99.90;;;;;;5009280;28;20075;-78
2024/01/27 11:37:25;;;;;;;20.05;7.35;;;6.50;99.90;;;;;;5007213;28;20056;-78
2024/01/27 11:39:54;;;;;;;23.33;7.50;;;6.70;99.90;;;;;;4997854;28;20128;-78
2024/01/27 11:42:20;;;;;;;29.05;8.93;;;6.60;99.90;;;;;;5009119;28;20042;-78
2024/01/27 11:44:45;;;;;;;20.20;7.43;;;6.70;99.90;;;;;;5009604;28;20141;-78
2024/01/27 11:47:16;;;;;;;20.95;7.22;;;6.70;99.90;;;;;;5008841;28;20037;-78
2024/01/27 11:49:42;;;;;;;24.10;7.43;;;6.80;99.90;;;;;;5003857;28;20050;-78
2024/01/27 11:52:08;;;;;;;22.63;7.68;;;6.90;99.90;;;;;;5008179;28;20129;-78
2024/01/27 11:54:34;;;;;;;19.30;7.32;;;6.90;99.90;;;;;;5006497;28;20463;-78
2024/01/27 11:56:59;;;;;;;20.95;7.22;;;7.00;99.90;;;;;;5008622;28;20046;-78
2024/01/27 11:59:27;;;;;;;23.58;7.53;;;7.10;99.90;;;;;;5007546;28;20655;-78
2024/01/27 12:01:53;;;;;;;28.45;7.53;;;7.20;99.90;;;;;;4998527;28;20052;-78
2024/01/27 12:04:21;;;;;;;22.30;6.80;;;7.20;99.90;;;;;;5003989;28;20128;-78
2024/01/27 12:06:47;;;;;;;22.23;7.00;;;7.30;99.90;;;;;;5004298;28;20141;-78
2024/01/27 12:09:13;;;;;;;25.95;6.45;;;7.60;99.90;;;;;;5008105;28;20569;-78
2024/01/27 12:11:41;;;;;;;20.88;6.88;;;7.40;99.90;;;;;;5005519;28;20096;-78
2024/01/27 12:14:07;;;;;;;21.67;6.38;;;7.50;99.90;;;;;;4997989;28;20438;-78
2024/01/27 12:16:33;;;;;;;20.60;6.68;;;7.50;99.90;;;;;;5009180;28;20034;-78
2024/01/27 12:18:59;;;;;;;21.67;6.88;;;7.60;99.90;;;;;;5006446;28;20088;-78
2024/01/27 12:21:25;;;;;;;21.38;6.53;;;7.60;99.90;;;;;;5006080;28;20033;-78
2024/01/27 12:23:55;;;;;;;18.25;6.65;;;7.60;99.90;;;;;;5005921;28;20042;-78
2024/01/27 12:26:29;;;;;;;23.23;6.40;;;7.60;99.90;;;;;;5004127;28;20052;-78
2024/01/27 12:28:56;;;;;;;20.90;7.65;;;7.60;99.90;;;;;;5005112;28;20069;-78
2024/01/27 12:31:23;;;;;;;19.05;6.63;;;7.70;99.90;;;;;;5008115;28;20845;-78
2024/01/27 12:33:53;;;;;;;20.98;7.13;;;7.70;99.90;;;;;;4994752;28;20096;-78
2024/01/27 12:36:20;;;;;;;18.33;7.35;;;7.70;99.90;;;;;;5002724;28;20038;-78
2024/01/27 12:38:59;;;;;;;25.25;7.00;;;7.70;99.90;;;;;;5005488;28;20065;-78